Time;durP1;ratioP1;P1;durP2;ratioP2;P2;SDS_P1;SDS_P2;PMS_P1;PMS_P2;Temp;Humidity;BMP_temperature;BMP_pressure;BME280_temperature;BME280_humidity;BME280_pressure;Samples;Min_cycle;Max_cycle;Signal;HPM_P1;HPM_P2
2022/10/01 00:00:25;;;;;;;20.43;14.07;;;;;;;;;;5091564;28;20190;-78
2022/10/01 00:03:30;;;;;;;20.67;15.53;;;;;;;;;;5103431;28;20217;-78
2022/10/01 00:06:34;;;;;;;15.93;12.50;;;;;;;;;;5092222;28;20190;-79
2022/10/01 00:09:38;;;;;;;15.67;11.80;;;;;;;;;;5091701;28;20566;-78
2022/10/01 00:12:46;;;;;;;15.67;12.73;;;;;;;;;;5103590;28;20210;-78
2022/10/01 00:15:52;;;;;;;21.43;14.10;;;;;;;;;;5080071;28;20175;-79
2022/10/01 00:18:56;;;;;;;22.27;13.20;;;;;;;;;;5104607;28;20185;-79
2022/10/01 00:22:01;;;;;;;20.47;14.73;;;;;;;;;;5087895;28;20218;-78
2022/10/01 00:25:05;;;;;;;21.93;15.57;;;;;;;;;;5109464;28;20185;-78
2022/10/01 00:28:10;;;;;;;19.57;15.53;;;;;;;;;;5109755;28;20186;-79
2022/10/01 00:31:15;;;;;;;21.43;15.80;;;;;;;;;;5098587;28;20191;-78
2022/10/01 00:34:19;;;;;;;20.27;15.63;;;;;;;;;;5109670;28;20174;-77
2022/10/01 00:37:24;;;;;;;23.93;17.90;;;;;;;;;;5111022;28;20175;-79
2022/10/01 00:40:28;;;;;;;24.20;18.20;;;;;;;;;;5086674;28;20172;-79
2022/10/01 00:43:36;;;;;;;21.20;17.40;;;;;;;;;;5110121;28;20214;-79
2022/10/01 00:46:43;;;;;;;25.50;18.40;;;;;;;;;;5111553;28;20170;-78
2022/10/01 00:49:51;;;;;;;23.47;17.30;;;;;;;;;;5087066;28;20199;-79
2022/10/01 00:52:58;;;;;;;22.37;18.20;;;;;;;;;;5087089;28;20220;-78
2022/10/01 00:56:04;;;;;;;21.90;16.37;;;;;;;;;;5110237;28;20198;-78
2022/10/01 00:59:09;;;;;;;24.67;17.00;;;;;;;;;;5111074;28;20187;-78
2022/10/01 01:02:14;;;;;;;20.70;15.97;;;;;;;;;;5087550;28;20218;-78
2022/10/01 01:05:18;;;;;;;20.27;16.40;;;;;;;;;;5100030;28;20507;-78
2022/10/01 01:08:24;;;;;;;20.33;16.30;;;;;;;;;;5110148;28;20190;-79
2022/10/01 01:11:35;;;;;;;24.43;16.77;;;;;;;;;;5099495;28;20185;-78
2022/10/01 01:14:53;;;;;;;24.40;17.20;;;;;;;;;;5110751;28;20175;-78
2022/10/01 01:17:57;;;;;;;21.97;16.87;;;;;;;;;;5087401;28;20537;-80
2022/10/01 01:21:29;;;;;;;22.93;17.63;;;;;;;;;;5087173;28;20191;-79
2022/10/01 01:24:39;;;;;;;25.17;17.70;;;;;;;;;;5086399;28;20178;-78
2022/10/01 01:28:21;;;;;;;20.77;16.37;;;;;;;;;;5109405;28;20175;-78
2022/10/01 01:31:32;;;;;;;21.00;16.20;;;;;;;;;;5106076;28;20185;-78
2022/10/01 01:34:39;;;;;;;21.30;16.43;;;;;;;;;;5084138;28;20179;-79
2022/10/01 01:37:50;;;;;;;19.27;15.93;;;;;;;;;;5095641;28;20652;-78
2022/10/01 01:40:59;;;;;;;23.90;17.67;;;;;;;;;;5107035;28;20174;-79
2022/10/01 01:44:08;;;;;;;26.43;19.77;;;;;;;;;;5107151;28;20206;-78
2022/10/01 01:47:13;;;;;;;24.40;18.70;;;;;;;;;;5107321;28;20658;-80
2022/10/01 01:50:18;;;;;;;26.77;19.03;;;;;;;;;;5107512;28;20222;-78
2022/10/01 01:53:22;;;;;;;25.00;18.67;;;;;;;;;;5095702;28;20589;-79
2022/10/01 01:56:30;;;;;;;25.23;18.60;;;;;;;;;;5107014;28;20214;-78
2022/10/01 01:59:34;;;;;;;24.93;19.23;;;;;;;;;;5094740;28;20203;-78
2022/10/01 02:02:42;;;;;;;27.33;20.33;;;;;;;;;;5095130;28;20227;-80
2022/10/01 02:06:30;;;;;;;27.27;18.37;;;;;;;;;;5106268;28;20191;-78
2022/10/01 02:09:45;;;;;;;26.40;19.17;;;;;;;;;;5105826;28;20712;-78
2022/10/01 02:13:11;;;;;;;25.43;18.33;;;;;;;;;;5073062;28;20231;-79
2022/10/01 02:16:46;;;;;;;33.07;20.73;;;;;;;;;;5092066;28;20205;-79
2022/10/01 02:19:58;;;;;;;26.73;18.00;;;;;;;;;;5106333;28;20529;-78
2022/10/01 02:23:09;;;;;;;27.07;20.00;;;;;;;;;;5094184;28;20216;-78
2022/10/01 02:26:18;;;;;;;26.47;19.20;;;;;;;;;;5106193;28;20190;-78
2022/10/01 02:29:23;;;;;;;29.43;19.93;;;;;;;;;;5105914;28;20203;-78
2022/10/01 02:32:29;;;;;;;34.13;24.10;;;;;;;;;;5105669;28;20575;-78
2022/10/01 02:35:35;;;;;;;33.87;22.90;;;;;;;;;;5106841;28;20181;-79
2022/10/01 02:38:43;;;;;;;32.37;22.17;;;;;;;;;;5094492;28;20185;-79
2022/10/01 02:41:50;;;;;;;32.37;22.50;;;;;;;;;;5094332;28;20174;-78
2022/10/01 02:44:55;;;;;;;36.37;21.23;;;;;;;;;;5095149;28;20177;-79
2022/10/01 02:48:07;;;;;;;31.40;21.00;;;;;;;;;;5094010;28;20202;-78
2022/10/01 02:51:44;;;;;;;31.17;21.33;;;;;;;;;;5068952;28;20206;-78
2022/10/01 02:54:55;;;;;;;32.43;21.67;;;;;;;;;;5086778;28;20654;-79
2022/10/01 02:58:00;;;;;;;29.50;20.53;;;;;;;;;;5073025;28;20192;-79
2022/10/01 03:01:05;;;;;;;26.63;20.30;;;;;;;;;;5062503;28;20177;-78
2022/10/01 03:04:09;;;;;;;28.27;20.50;;;;;;;;;;5085768;28;20191;-79
2022/10/01 03:07:14;;;;;;;30.40;22.60;;;;;;;;;;5062122;28;20546;-79
2022/10/01 03:10:19;;;;;;;32.00;20.87;;;;;;;;;;5085015;28;20580;-78
2022/10/01 03:13:24;;;;;;;28.70;21.07;;;;;;;;;;5086687;28;20223;-78
2022/10/01 03:16:28;;;;;;;30.57;21.03;;;;;;;;;;5063812;28;20184;-79
2022/10/01 03:19:32;;;;;;;31.33;20.10;;;;;;;;;;5086846;28;20198;-79
2022/10/01 03:22:37;;;;;;;29.80;20.70;;;;;;;;;;5062501;28;20682;-79
2022/10/01 03:25:41;;;;;;;28.33;19.67;;;;;;;;;;5073936;28;20180;-78
2022/10/01 03:28:45;;;;;;;32.10;22.00;;;;;;;;;;5075659;28;20175;-79
2022/10/01 03:31:50;;;;;;;30.83;21.00;;;;;;;;;;5088030;28;20178;-79
2022/10/01 03:34:55;;;;;;;31.83;21.63;;;;;;;;;;5087491;28;20190;-79
2022/10/01 03:38:01;;;;;;;31.60;20.07;;;;;;;;;;5087637;28;20492;-79
2022/10/01 03:41:05;;;;;;;32.40;21.97;;;;;;;;;;5075740;28;20172;-78
2022/10/01 03:44:10;;;;;;;32.53;20.47;;;;;;;;;;5076227;28;20180;-80
2022/10/01 03:47:14;;;;;;;30.83;20.33;;;;;;;;;;5076098;28;20183;-79
2022/10/01 03:50:20;;;;;;;26.60;19.47;;;;;;;;;;5075443;28;20204;-79
2022/10/01 03:53:26;;;;;;;28.70;20.43;;;;;;;;;;5058735;28;20227;-78
2022/10/01 03:56:31;;;;;;;28.97;20.43;;;;;;;;;;5064528;28;20213;-79
2022/10/01 03:59:35;;;;;;;27.83;19.97;;;;;;;;;;5053003;28;20188;-78
2022/10/01 04:02:39;;;;;;;27.80;19.03;;;;;;;;;;5052470;28;20207;-79
2022/10/01 04:05:44;;;;;;;29.23;19.17;;;;;;;;;;5076616;28;20195;-79
2022/10/01 04:08:48;;;;;;;26.57;18.23;;;;;;;;;;5052699;28;20206;-79
2022/10/01 04:11:53;;;;;;;23.87;17.03;;;;;;;;;;5075913;28;20178;-79
2022/10/01 04:14:57;;;;;;;28.10;18.00;;;;;;;;;;5064355;28;20192;-79
2022/10/01 04:18:05;;;;;;;25.83;18.03;;;;;;;;;;5063991;28;20649;-78
2022/10/01 04:21:10;;;;;;;27.97;18.23;;;;;;;;;;5052100;28;20555;-78
2022/10/01 04:24:14;;;;;;;27.13;18.50;;;;;;;;;;5063273;28;20180;-78
2022/10/01 04:27:18;;;;;;;24.63;17.77;;;;;;;;;;5074431;28;20202;-79
2022/10/01 04:30:23;;;;;;;24.83;18.13;;;;;;;;;;5051491;28;20296;-79
2022/10/01 04:33:27;;;;;;;36.30;21.63;;;;;;;;;;5063202;28;20228;-78
2022/10/01 04:36:32;;;;;;;36.47;19.93;;;;;;;;;;5062581;28;20192;-78
2022/10/01 04:39:36;;;;;;;34.93;22.60;;;;;;;;;;5062663;28;20183;-78
2022/10/01 04:42:42;;;;;;;30.90;19.43;;;;;;;;;;5074743;28;20211;-78
2022/10/01 04:45:46;;;;;;;26.83;18.60;;;;;;;;;;5052182;28;20183;-79
2022/10/01 04:48:51;;;;;;;26.37;17.93;;;;;;;;;;5063316;28;20547;-79
2022/10/01 04:51:54;;;;;;;26.93;19.10;;;;;;;;;;5063471;28;20181;-78
2022/10/01 04:54:59;;;;;;;23.87;15.60;;;;;;;;;;5052000;28;20175;-79
2022/10/01 04:58:03;;;;;;;27.00;15.43;;;;;;;;;;5052249;28;20184;-78
2022/10/01 05:01:07;;;;;;;26.87;17.30;;;;;;;;;;5091185;28;20663;-79
2022/10/01 05:04:11;;;;;;;21.97;15.90;;;;;;;;;;5071593;28;20188;-78
2022/10/01 05:07:16;;;;;;;21.83;16.20;;;;;;;;;;5087650;28;20695;-78
2022/10/01 05:10:21;;;;;;;23.27;15.80;;;;;;;;;;5081506;28;20705;-79
2022/10/01 05:13:28;;;;;;;23.73;16.00;;;;;;;;;;5055305;28;20218;-78
2022/10/01 05:16:33;;;;;;;21.57;15.97;;;;;;;;;;5078675;28;20184;-79
2022/10/01 05:19:37;;;;;;;24.47;16.33;;;;;;;;;;5078582;28;20202;-79
2022/10/01 05:22:41;;;;;;;22.90;15.63;;;;;;;;;;5078315;28;20222;-79
2022/10/01 05:25:45;;;;;;;23.37;15.87;;;;;;;;;;5066865;28;20698;-78
2022/10/01 05:28:50;;;;;;;20.70;15.37;;;;;;;;;;5078507;28;20179;-79
2022/10/01 05:31:54;;;;;;;20.73;15.73;;;;;;;;;;5077721;28;20199;-79
2022/10/01 05:34:58;;;;;;;23.80;17.20;;;;;;;;;;5077790;28;20195;-79
2022/10/01 05:38:02;;;;;;;22.67;15.90;;;;;;;;;;5078069;28;20184;-79
2022/10/01 05:41:06;;;;;;;21.10;16.07;;;;;;;;;;5079068;28;20234;-79
2022/10/01 05:44:10;;;;;;;20.43;15.30;;;;;;;;;;5079563;28;20175;-79
2022/10/01 05:47:16;;;;;;;20.63;15.63;;;;;;;;;;5067357;28;20198;-79
2022/10/01 05:50:20;;;;;;;19.80;14.90;;;;;;;;;;5077721;28;20225;-79
2022/10/01 05:53:24;;;;;;;19.87;14.27;;;;;;;;;;5077471;28;20235;-78
2022/10/01 05:56:29;;;;;;;17.40;13.87;;;;;;;;;;5078155;28;20212;-79
2022/10/01 05:59:34;;;;;;;17.57;13.23;;;;;;;;;;5077625;28;20188;-79
2022/10/01 06:02:38;;;;;;;19.63;15.27;;;;;;;;;;5076921;28;20596;-79
2022/10/01 06:05:43;;;;;;;21.43;15.73;;;;;;;;;;5077302;28;20190;-79
2022/10/01 06:08:47;;;;;;;17.20;13.40;;;;;;;;;;5066140;28;20186;-79
2022/10/01 06:11:51;;;;;;;15.97;13.33;;;;;;;;;;5077560;28;20210;-79
2022/10/01 06:14:55;;;;;;;19.60;14.90;;;;;;;;;;5065832;28;20202;-79
2022/10/01 06:18:03;;;;;;;19.23;14.90;;;;;;;;;;5065913;28;20250;-79
2022/10/01 06:21:08;;;;;;;18.20;14.37;;;;;;;;;;5079251;28;20172;-79
2022/10/01 06:24:13;;;;;;;17.33;12.63;;;;;;;;;;5066634;28;20195;-79
2022/10/01 06:27:17;;;;;;;17.40;13.13;;;;;;;;;;5067941;28;20661;-79
2022/10/01 06:30:21;;;;;;;15.33;12.20;;;;;;;;;;5067710;28;20278;-80
2022/10/01 06:33:25;;;;;;;14.03;11.37;;;;;;;;;;5078977;28;20611;-79
2022/10/01 06:36:30;;;;;;;16.30;11.90;;;;;;;;;;5078147;28;20187;-79
2022/10/01 06:39:35;;;;;;;13.70;10.27;;;;;;;;;;5078970;28;20191;-80
2022/10/01 06:42:45;;;;;;;12.53;10.07;;;;;;;;;;5066110;28;20214;-79
2022/10/01 06:45:50;;;;;;;12.33;10.10;;;;;;;;;;5063790;28;20194;-78
2022/10/01 06:48:54;;;;;;;11.83;9.53;;;;;;;;;;5066346;28;20546;-78
2022/10/01 06:55:27;;;;;;;11.87;9.27;;;;;;;;;;5077465;28;20190;-79
2022/10/01 06:58:32;;;;;;;11.17;8.23;;;;;;;;;;5077829;28;20190;-78
2022/10/01 07:01:36;;;;;;;15.40;9.00;;;;;;;;;;5065043;28;20186;-79
2022/10/01 07:04:40;;;;;;;10.63;8.77;;;;;;;;;;5076743;28;20179;-78
2022/10/01 07:07:46;;;;;;;11.13;9.50;;;;;;;;;;5064604;28;20182;-78
2022/10/01 07:10:50;;;;;;;12.50;9.77;;;;;;;;;;5064569;28;20207;-78
2022/10/01 07:13:56;;;;;;;15.07;9.03;;;;;;;;;;5076250;28;20226;-78
2022/10/01 07:17:00;;;;;;;11.70;8.53;;;;;;;;;;5064183;28;20195;-78
2022/10/01 07:20:04;;;;;;;9.77;8.10;;;;;;;;;;5063438;28;20197;-78
2022/10/01 07:23:13;;;;;;;11.53;9.53;;;;;;;;;;5074577;28;20219;-79
2022/10/01 07:26:18;;;;;;;12.27;9.07;;;;;;;;;;5064356;28;20180;-79
2022/10/01 07:29:23;;;;;;;11.10;8.77;;;;;;;;;;5052394;28;20179;-79
2022/10/01 07:32:30;;;;;;;13.03;10.30;;;;;;;;;;5075450;28;20717;-78
2022/10/01 07:35:37;;;;;;;11.00;9.43;;;;;;;;;;5076119;28;20186;-79
2022/10/01 07:38:42;;;;;;;10.27;8.17;;;;;;;;;;5064659;28;20182;-78
2022/10/01 07:41:46;;;;;;;10.83;8.80;;;;;;;;;;5075222;28;20641;-77
2022/10/01 07:44:50;;;;;;;10.50;8.87;;;;;;;;;;5064225;28;20206;-78
2022/10/01 07:47:59;;;;;;;11.70;8.70;;;;;;;;;;5063930;28;20665;-78
2022/10/01 07:51:03;;;;;;;15.17;13.40;;;;;;;;;;5074881;28;20220;-77
2022/10/01 07:54:08;;;;;;;10.20;8.90;;;;;;;;;;5063080;28;20530;-78
2022/10/01 07:57:12;;;;;;;12.60;8.60;;;;;;;;;;5062521;28;20195;-77
2022/10/01 08:00:16;;;;;;;10.43;8.47;;;;;;;;;;5076077;28;20190;-78
2022/10/01 08:03:20;;;;;;;11.03;9.83;;;;;;;;;;5064186;28;20555;-78
2022/10/01 08:06:24;;;;;;;11.27;8.43;;;;;;;;;;5075800;28;20540;-78
2022/10/01 08:09:28;;;;;;;10.20;7.90;;;;;;;;;;5076225;28;20206;-78
2022/10/01 08:12:33;;;;;;;8.77;7.37;;;;;;;;;;5074947;28;20229;-76
2022/10/01 08:15:37;;;;;;;9.63;7.63;;;;;;;;;;5074492;28;20183;-78
2022/10/01 08:18:41;;;;;;;10.20;7.77;;;;;;;;;;5076264;28;20176;-78
2022/10/01 08:21:45;;;;;;;8.93;6.90;;;;;;;;;;5076031;28;20167;-78
2022/10/01 08:24:49;;;;;;;9.60;6.73;;;;;;;;;;5075191;28;20179;-79
2022/10/01 08:27:54;;;;;;;8.63;6.57;;;;;;;;;;5063691;28;20203;-78
2022/10/01 08:30:57;;;;;;;9.97;6.23;;;;;;;;;;5075815;28;20211;-77
2022/10/01 08:34:01;;;;;;;6.50;5.90;;;;;;;;;;5075973;28;20579;-77
2022/10/01 08:37:05;;;;;;;11.33;6.27;;;;;;;;;;5063440;28;20180;-78
2022/10/01 08:40:10;;;;;;;9.63;6.30;;;;;;;;;;5075643;28;20662;-78
2022/10/01 08:43:25;;;;;;;8.63;6.40;;;;;;;;;;5067478;28;20215;-78
2022/10/01 08:46:34;;;;;;;7.00;5.40;;;;;;;;;;5067572;28;20192;-78
2022/10/01 08:49:52;;;;;;;5.77;5.17;;;;;;;;;;5079505;28;20620;-78
2022/10/01 08:53:01;;;;;;;6.83;5.13;;;;;;;;;;5067436;28;20219;-78
2022/10/01 08:56:17;;;;;;;6.70;6.00;;;;;;;;;;5079863;28;20204;-79
2022/10/01 08:59:34;;;;;;;12.10;5.80;;;;;;;;;;5067604;28;20539;-78
2022/10/01 09:02:41;;;;;;;5.73;5.13;;;;;;;;;;5080444;28;20215;-78
2022/10/01 09:06:05;;;;;;;6.23;5.43;;;;;;;;;;5080641;28;20180;-79
2022/10/01 09:09:43;;;;;;;6.63;5.20;;;;;;;;;;5068271;28;20176;-78
2022/10/01 09:12:52;;;;;;;6.40;5.10;;;;;;;;;;5078055;28;20223;-78
2022/10/01 09:16:01;;;;;;;6.70;5.10;;;;;;;;;;5079729;28;20183;-79
2022/10/01 09:19:34;;;;;;;5.63;5.10;;;;;;;;;;5079675;28;20183;-79
2022/10/01 09:22:43;;;;;;;5.90;4.90;;;;;;;;;;5078751;28;20207;-79
2022/10/01 09:25:49;;;;;;;5.70;4.67;;;;;;;;;;5079469;28;20176;-79
2022/10/01 09:28:54;;;;;;;4.93;4.43;;;;;;;;;;5079982;28;20627;-78
2022/10/01 09:32:02;;;;;;;5.07;4.53;;;;;;;;;;5067086;28;20199;-79
2022/10/01 09:35:22;;;;;;;6.67;5.33;;;;;;;;;;5077646;28;20524;-79
2022/10/01 09:38:37;;;;;;;6.20;5.50;;;;;;;;;;5065965;28;20516;-78
2022/10/01 09:41:45;;;;;;;6.33;4.63;;;;;;;;;;5065528;28;20191;-77
2022/10/01 09:44:49;;;;;;;4.83;3.87;;;;;;;;;;5077148;28;20179;-78
2022/10/01 09:48:01;;;;;;;4.30;3.83;;;;;;;;;;5077192;28;20180;-77
2022/10/01 09:51:17;;;;;;;4.90;4.50;;;;;;;;;;5077667;28;20184;-78
2022/10/01 09:54:32;;;;;;;7.07;5.20;;;;;;;;;;5077915;28;20187;-77
2022/10/01 09:57:38;;;;;;;6.70;4.03;;;;;;;;;;5066486;28;20176;-78
2022/10/01 10:00:43;;;;;;;4.10;3.70;;;;;;;;;;5067078;28;20642;-78
2022/10/01 10:03:56;;;;;;;4.80;3.90;;;;;;;;;;5078878;28;20207;-79
2022/10/01 10:07:03;;;;;;;3.50;3.20;;;;;;;;;;5079378;28;20542;-78
2022/10/01 10:10:18;;;;;;;5.33;2.50;;;;;;;;;;5079806;28;20175;-79
2022/10/01 10:13:38;;;;;;;3.80;2.90;;;;;;;;;;5078965;28;20200;-79
2022/10/01 10:16:46;;;;;;;3.67;2.67;;;;;;;;;;5066413;28;20192;-79
2022/10/01 10:19:51;;;;;;;4.13;2.87;;;;;;;;;;5080219;28;20196;-79
2022/10/01 10:23:15;;;;;;;5.20;2.80;;;;;;;;;;5078743;28;20207;-79
2022/10/01 10:26:34;;;;;;;6.37;3.00;;;;;;;;;;5078583;28;20175;-78
2022/10/01 10:29:38;;;;;;;4.67;2.80;;;;;;;;;;5079748;28;20180;-78
2022/10/01 10:32:44;;;;;;;5.17;2.80;;;;;;;;;;5066678;28;20215;-79
2022/10/01 10:36:01;;;;;;;3.77;2.77;;;;;;;;;;5082944;28;20199;-80
2022/10/01 10:39:23;;;;;;;3.70;2.70;;;;;;;;;;5087141;28;20180;-79
2022/10/01 10:42:28;;;;;;;3.40;2.90;;;;;;;;;;5087234;28;20208;-78
2022/10/01 10:45:36;;;;;;;6.50;2.50;;;;;;;;;;5093417;28;20180;-78
2022/10/01 10:48:42;;;;;;;3.47;2.73;;;;;;;;;;5073877;28;20184;-79
2022/10/01 10:51:55;;;;;;;4.53;2.80;;;;;;;;;;5084214;28;20195;-78
2022/10/01 10:55:02;;;;;;;4.60;2.90;;;;;;;;;;5085084;28;20187;-78
2022/10/01 10:58:29;;;;;;;2.93;2.50;;;;;;;;;;5070349;28;20171;-78
2022/10/01 11:01:39;;;;;;;2.93;2.60;;;;;;;;;;5086651;28;20180;-79
2022/10/01 11:04:45;;;;;;;2.53;2.33;;;;;;;;;;5071302;28;20176;-78
2022/10/01 11:07:54;;;;;;;32.07;22.13;;;;;;;;;;5097515;28;20206;-79
2022/10/01 11:11:31;;;;;;;22.60;15.37;;;;;;;;;;5104530;28;20215;-78
2022/10/01 11:14:44;;;;;;;43.20;27.17;;;;;;;;;;5103697;28;20190;-78
2022/10/01 11:18:16;;;;;;;15.43;10.53;;;;;;;;;;5078550;28;20186;-78
2022/10/01 11:21:47;;;;;;;5.03;3.90;;;;;;;;;;5103304;28;20584;-78
2022/10/01 11:25:09;;;;;;;3.60;3.00;;;;;;;;;;5089051;28;20179;-78
2022/10/01 11:28:20;;;;;;;4.37;2.77;;;;;;;;;;5102814;28;20171;-77
2022/10/01 11:31:48;;;;;;;4.17;2.50;;;;;;;;;;5081064;28;20507;-78
2022/10/01 11:35:22;;;;;;;4.00;2.77;;;;;;;;;;5100227;28;20649;-77
2022/10/01 11:38:35;;;;;;;5.10;2.67;;;;;;;;;;5083724;28;20202;-79
2022/10/01 11:41:44;;;;;;;2.57;2.20;;;;;;;;;;5100830;28;20190;-78
2022/10/01 11:44:56;;;;;;;4.07;2.50;;;;;;;;;;5102199;28;20174;-79
2022/10/01 11:48:16;;;;;;;3.07;2.47;;;;;;;;;;5103393;28;20179;-78
2022/10/01 11:51:26;;;;;;;4.07;2.37;;;;;;;;;;5098767;28;20183;-78
2022/10/01 11:54:33;;;;;;;3.70;2.20;;;;;;;;;;5100005;28;20194;-79
2022/10/01 12:01:08;;;;;;;2.77;2.10;;;;;;;;;;5099793;28;20182;-78
2022/10/01 12:04:34;;;;;;;2.50;1.97;;;;;;;;;;5100458;28;20171;-79
2022/10/01 12:07:48;;;;;;;3.13;2.30;;;;;;;;;;5098640;28;20204;-79
2022/10/01 12:11:00;;;;;;;3.10;2.57;;;;;;;;;;5101911;28;20533;-78
2022/10/01 12:14:11;;;;;;;2.80;2.40;;;;;;;;;;5101782;28;20206;-79
2022/10/01 12:17:25;;;;;;;2.40;2.20;;;;;;;;;;5087372;28;20191;-79
2022/10/01 12:20:59;;;;;;;2.40;2.20;;;;;;;;;;5075994;28;20190;-80
2022/10/01 12:24:17;;;;;;;2.57;2.37;;;;;;;;;;5102396;28;20210;-78
2022/10/01 12:27:37;;;;;;;3.33;2.73;;;;;;;;;;5101712;28;20179;-77
2022/10/01 12:30:48;;;;;;;3.00;2.70;;;;;;;;;;5098953;28;20174;-79
2022/10/01 12:34:27;;;;;;;2.83;2.60;;;;;;;;;;5103665;28;20230;-80
2022/10/01 12:38:08;;;;;;;3.60;2.10;;;;;;;;;;5106501;28;20599;-78
2022/10/01 12:41:28;;;;;;;2.70;2.23;;;;;;;;;;5100354;28;20179;-78
2022/10/01 12:44:39;;;;;;;2.40;2.20;;;;;;;;;;5101002;28;20175;-80
2022/10/01 12:48:09;;;;;;;2.77;2.20;;;;;;;;;;5085938;28;20535;-80
2022/10/01 12:51:51;;;;;;;3.07;2.10;;;;;;;;;;5074081;28;20175;-80
2022/10/01 12:55:20;;;;;;;2.33;2.13;;;;;;;;;;5096204;28;20171;-79
2022/10/01 12:58:50;;;;;;;2.03;1.83;;;;;;;;;;5100912;28;20207;-79
2022/10/01 13:02:22;;;;;;;5.03;3.47;;;;;;;;;;5103369;28;20170;-79
2022/10/01 13:05:59;;;;;;;4.27;3.83;;;;;;;;;;5078124;28;20175;-79
2022/10/01 13:09:27;;;;;;;10.03;9.03;;;;;;;;;;5080215;28;20200;-80
2022/10/01 13:12:47;;;;;;;7.33;6.00;;;;;;;;;;5067887;28;20215;-80
2022/10/01 13:16:05;;;;;;;47.37;31.17;;;;;;;;;;5068550;28;20188;-80
2022/10/01 13:19:23;;;;;;;15.97;13.13;;;;;;;;;;5090943;28;20190;-79
2022/10/01 13:22:37;;;;;;;11.30;10.10;;;;;;;;;;5068025;28;20219;-80
2022/10/01 13:25:44;;;;;;;3.03;2.40;;;;;;;;;;5079644;28;20178;-80
2022/10/01 13:28:57;;;;;;;3.83;2.17;;;;;;;;;;5082696;28;20176;-79
2022/10/01 13:32:22;;;;;;;2.77;2.10;;;;;;;;;;5083331;28;20179;-80
2022/10/01 13:35:40;;;;;;;2.43;1.97;;;;;;;;;;5073373;28;20187;-79
2022/10/01 13:38:47;;;;;;;1.77;1.57;;;;;;;;;;5083916;28;20188;-80
2022/10/01 13:41:56;;;;;;;2.30;2.10;;;;;;;;;;5083703;28;20179;-80
2022/10/01 13:45:26;;;;;;;3.90;1.80;;;;;;;;;;5060413;28;20184;-80
2022/10/01 13:48:34;;;;;;;2.27;1.90;;;;;;;;;;5089142;28;20209;-80
2022/10/01 13:51:41;;;;;;;2.10;1.70;;;;;;;;;;5082176;28;20191;-80
2022/10/01 13:54:52;;;;;;;3.17;1.90;;;;;;;;;;5081050;28;20168;-80
2022/10/01 13:58:06;;;;;;;1.77;1.40;;;;;;;;;;5057716;28;20172;-80
2022/10/01 14:01:13;;;;;;;2.17;1.97;;;;;;;;;;5080283;28;20175;-79
2022/10/01 14:04:17;;;;;;;22.73;14.17;;;;;;;;;;5082187;28;20171;-80
2022/10/01 14:07:31;;;;;;;52.93;31.50;;;;;;;;;;5081258;28;20186;-79
2022/10/01 14:17:52;;;;;;;3.47;2.03;;;;;;;;;;5083706;28;20532;-79
2022/10/01 14:21:11;;;;;;;2.63;1.60;;;;;;;;;;5070012;28;20200;-79
2022/10/01 14:24:43;;;;;;;1.60;1.50;;;;;;;;;;5081839;28;20176;-79
2022/10/01 14:27:55;;;;;;;1.37;1.27;;;;;;;;;;5070876;28;20188;-80
2022/10/01 14:30:59;;;;;;;1.60;1.50;;;;;;;;;;5070803;28;20188;-79
2022/10/01 14:34:27;;;;;;;2.20;2.00;;;;;;;;;;5081230;28;20219;-80
2022/10/01 14:37:37;;;;;;;1.70;1.60;;;;;;;;;;5058317;28;20184;-79
2022/10/01 14:40:44;;;;;;;1.60;1.40;;;;;;;;;;5081504;28;20176;-80
2022/10/01 14:43:48;;;;;;;2.70;2.50;;;;;;;;;;5082827;28;20686;-80
2022/10/01 14:46:58;;;;;;;2.07;1.40;;;;;;;;;;5083471;28;20187;-80
2022/10/01 14:50:10;;;;;;;1.73;1.40;;;;;;;;;;5083033;28;20184;-80
2022/10/01 14:53:17;;;;;;;1.53;1.40;;;;;;;;;;5081527;28;20560;-80
2022/10/01 14:56:22;;;;;;;1.37;1.20;;;;;;;;;;5081914;28;20203;-83
2022/10/01 14:59:36;;;;;;;1.10;1.00;;;;;;;;;;5068541;28;20180;-81
2022/10/01 15:03:06;;;;;;;1.80;1.30;;;;;;;;;;5080436;28;20683;-80
2022/10/01 15:06:21;;;;;;;1.63;1.30;;;;;;;;;;5079914;28;20180;-80
2022/10/01 15:09:32;;;;;;;1.47;1.07;;;;;;;;;;5080635;28;20192;-81
2022/10/01 15:12:40;;;;;;;1.40;1.30;;;;;;;;;;5079832;28;20219;-81
2022/10/01 15:15:44;;;;;;;1.33;1.07;;;;;;;;;;5078941;28;20217;-82
2022/10/01 15:18:52;;;;;;;2.90;1.83;;;;;;;;;;5078762;28;20514;-81
2022/10/01 15:22:01;;;;;;;1.37;1.27;;;;;;;;;;5078930;28;20183;-80
2022/10/01 15:25:05;;;;;;;1.60;1.20;;;;;;;;;;5067604;28;20175;-79
2022/10/01 15:28:14;;;;;;;1.40;1.10;;;;;;;;;;5078984;28;20179;-80
2022/10/01 15:31:21;;;;;;;1.73;1.30;;;;;;;;;;5079822;28;20180;-81
2022/10/01 15:34:26;;;;;;;1.73;1.40;;;;;;;;;;5079776;28;20203;-80
2022/10/01 15:37:34;;;;;;;4.00;1.67;;;;;;;;;;5055769;28;20528;-79
2022/10/01 15:40:41;;;;;;;2.67;1.47;;;;;;;;;;5077308;28;20179;-80
2022/10/01 15:43:46;;;;;;;2.10;1.90;;;;;;;;;;5078037;28;20215;-80
2022/10/01 15:46:50;;;;;;;1.97;1.57;;;;;;;;;;5054541;28;20172;-80
2022/10/01 15:50:16;;;;;;;1.50;1.40;;;;;;;;;;5077011;28;20195;-80
2022/10/01 15:53:21;;;;;;;1.77;1.20;;;;;;;;;;5076920;28;20223;-80
2022/10/01 15:56:25;;;;;;;2.73;1.40;;;;;;;;;;5078329;28;20207;-79
2022/10/01 15:59:30;;;;;;;2.73;1.60;;;;;;;;;;5079084;28;20179;-80
2022/10/01 16:02:34;;;;;;;3.03;1.63;;;;;;;;;;5067302;28;20211;-80
2022/10/01 16:05:46;;;;;;;3.67;2.33;;;;;;;;;;5078799;28;20180;-80
2022/10/01 16:09:02;;;;;;;6.70;1.70;;;;;;;;;;5078437;28;20643;-80
2022/10/01 16:12:09;;;;;;;7.20;1.77;;;;;;;;;;5056507;28;20219;-80
2022/10/01 16:15:31;;;;;;;1.43;1.10;;;;;;;;;;5078273;28;20179;-80
2022/10/01 16:18:38;;;;;;;5.57;4.20;;;;;;;;;;5066935;28;20176;-80
2022/10/01 16:21:43;;;;;;;3.63;3.30;;;;;;;;;;5054536;28;20179;-80
2022/10/01 16:24:56;;;;;;;2.20;2.00;;;;;;;;;;5077960;28;20168;-79
2022/10/01 16:28:04;;;;;;;2.43;1.80;;;;;;;;;;5076970;28;20211;-79
2022/10/01 16:31:08;;;;;;;1.90;1.70;;;;;;;;;;5092446;28;20206;-80
2022/10/01 16:34:15;;;;;;;4.80;1.60;;;;;;;;;;5098158;28;20202;-80
2022/10/01 16:37:19;;;;;;;1.87;1.57;;;;;;;;;;5099383;28;20634;-78
2022/10/01 16:40:37;;;;;;;9.13;8.20;;;;;;;;;;5093065;28;20202;-79
2022/10/01 16:43:42;;;;;;;7.10;6.37;;;;;;;;;;5086985;28;20207;-80
2022/10/01 16:46:46;;;;;;;7.33;6.63;;;;;;;;;;5098720;28;20194;-79
2022/10/01 16:49:51;;;;;;;3.23;2.43;;;;;;;;;;5086557;28;20198;-80
2022/10/01 16:53:00;;;;;;;3.13;1.70;;;;;;;;;;5086664;28;20211;-79
2022/10/01 16:56:04;;;;;;;2.67;1.47;;;;;;;;;;5098710;28;20211;-81
2022/10/01 16:59:09;;;;;;;3.47;2.13;;;;;;;;;;5098497;28;20183;-80
2022/10/01 17:02:13;;;;;;;3.33;1.57;;;;;;;;;;5097536;28;20223;-80
2022/10/01 17:05:21;;;;;;;1.80;1.37;;;;;;;;;;5070959;28;20180;-80
2022/10/01 17:08:25;;;;;;;1.80;1.40;;;;;;;;;;5070030;28;20180;-80
2022/10/01 17:11:29;;;;;;;4.67;1.30;;;;;;;;;;5081203;28;20179;-80
2022/10/01 17:14:33;;;;;;;2.60;1.40;;;;;;;;;;5080950;28;20211;-80
2022/10/01 17:17:37;;;;;;;3.07;1.90;;;;;;;;;;5081195;28;20183;-79
2022/10/01 17:20:41;;;;;;;5.03;4.47;;;;;;;;;;5080380;28;20179;-80
2022/10/01 17:23:45;;;;;;;2.33;2.00;;;;;;;;;;5081509;28;20686;-79
2022/10/01 17:26:50;;;;;;;1.70;1.60;;;;;;;;;;5070281;28;20180;-79
2022/10/01 17:29:56;;;;;;;5.13;1.30;;;;;;;;;;5069809;28;20179;-80
2022/10/01 17:33:00;;;;;;;1.20;1.10;;;;;;;;;;5081425;28;20211;-81
2022/10/01 17:36:06;;;;;;;18.63;15.93;;;;;;;;;;5081885;28;20188;-78
2022/10/01 17:39:10;;;;;;;7.27;3.90;;;;;;;;;;5081786;28;20202;-79
2022/10/01 17:42:15;;;;;;;4.97;4.57;;;;;;;;;;5068518;28;20211;-79
2022/10/01 17:45:19;;;;;;;5.17;3.07;;;;;;;;;;5082058;28;20176;-80
2022/10/01 17:48:25;;;;;;;1.60;1.40;;;;;;;;;;5081848;28;20179;-79
2022/10/01 17:51:30;;;;;;;2.30;0.90;;;;;;;;;;5082791;28;20183;-79
2022/10/01 17:54:37;;;;;;;1.60;1.00;;;;;;;;;;5069726;28;20211;-79
2022/10/01 17:57:42;;;;;;;1.10;1.00;;;;;;;;;;5069843;28;20208;-79
2022/10/01 18:00:46;;;;;;;1.90;1.20;;;;;;;;;;5080582;28;20175;-79
2022/10/01 18:03:54;;;;;;;1.93;1.20;;;;;;;;;;5079865;28;20211;-79
2022/10/01 18:06:59;;;;;;;1.20;1.10;;;;;;;;;;5067775;28;20191;-79
2022/10/01 18:10:06;;;;;;;0.90;0.70;;;;;;;;;;5068149;28;20187;-80
2022/10/01 18:13:11;;;;;;;5.70;4.73;;;;;;;;;;5078551;28;20219;-79
2022/10/01 18:16:15;;;;;;;6.13;4.87;;;;;;;;;;5079561;28;20180;-79
2022/10/01 18:19:20;;;;;;;5.53;4.60;;;;;;;;;;5091787;28;20187;-80
2022/10/01 18:22:26;;;;;;;2.20;1.70;;;;;;;;;;5079833;28;20532;-78
2022/10/01 18:25:30;;;;;;;1.60;1.43;;;;;;;;;;5079102;28;20183;-78
2022/10/01 18:28:34;;;;;;;1.47;1.30;;;;;;;;;;5067805;28;20184;-79
2022/10/01 18:31:39;;;;;;;1.57;1.47;;;;;;;;;;5078177;28;20175;-79
2022/10/01 18:34:47;;;;;;;4.53;1.90;;;;;;;;;;5066827;28;20199;-79
2022/10/01 18:37:55;;;;;;;1.87;1.43;;;;;;;;;;5078738;28;20179;-79
2022/10/01 18:41:05;;;;;;;3.17;2.00;;;;;;;;;;5080286;28;20291;-79
2022/10/01 18:44:12;;;;;;;1.93;1.73;;;;;;;;;;5067253;28;20179;-78
2022/10/01 18:47:41;;;;;;;1.67;1.53;;;;;;;;;;5066542;28;20176;-79
2022/10/01 18:50:49;;;;;;;1.90;1.63;;;;;;;;;;5067541;28;20187;-80
2022/10/01 18:54:02;;;;;;;1.40;1.10;;;;;;;;;;5066112;28;20220;-78